EST,Max TemperatureF,Mean TemperatureF,Min TemperatureF,Max Dew PointF,MeanDew PointF,Min DewpointF,Max Humidity, Mean Humidity, Min Humidity, Max Sea Level PressureIn, Mean Sea Level PressureIn, Min Sea Level PressureIn, Max VisibilityMiles, Mean VisibilityMiles, Min VisibilityMiles, Max Wind SpeedMPH, Mean Wind SpeedMPH, Max Gust SpeedMPH,PrecipitationIn, CloudCover, Events, WindDirDegrees
2012-11-1,49,46,43,44,40,37,89,83,76,29.59,29.54,29.52,10,10,9,12,6,16,0.04,8,Rain,189
2012-11-2,48,44,40,39,35,32,83,72,60,29.73,29.63,29.58,10,10,10,21,11,30,T,8,Rain,277
2012-11-3,46,42,37,34,31,29,79,66,53,29.94,29.85,29.73,10,10,10,21,12,26,T,6,Snow,291
2012-11-4,44,40,35,30,28,25,82,70,57,30.03,29.99,29.94,10,10,10,17,12,23,0.00,6,,293
2012-11-5,42,35,28,23,20,16,64,49,34,30.20,30.09,30.03,10,10,10,16,8,21,0.00,6,,326
2012-11-6,40,31,21,20,17,15,81,59,37,30.27,30.21,30.16,10,10,10,8,3,12,0.00,1,,2
2012-11-7,36,29,21,27,20,16,84,64,44,30.18,30.07,29.95,10,9,2,20,8,28,0.01,8,Snow,3
2012-11-8,45,40,34,27,24,21,69,59,49,29.97,29.91,29.86,10,10,10,20,11,25,0.00,7,,357
2012-11-9,49,39,29,37,26,19,82,58,34,30.18,30.09,29.98,10,10,7,23,10,28,0.00,4,,308
2012-11-10,54,47,40,38,35,32,82,64,46,30.42,30.32,30.19,10,9,6,10,3,22,0.00,6,,343
2012-11-11,64,53,42,45,40,32,70,59,48,30.44,30.40,30.36,10,10,7,18,9,25,T,4,Rain,175
2012-11-12,67,58,49,55,48,41,86,67,48,30.40,30.29,30.10,10,10,10,28,15,39,0.00,5,,175
2012-11-13,63,49,35,55,35,24,89,71,53,30.49,30.32,30.07,10,8,2,29,10,36,0.78,8,Rain-Snow,315
2012-11-14,44,37,29,26,23,20,85,62,39,30.62,30.56,30.50,10,10,10,15,6,18,0.00,0,,358
2012-11-15,40,32,24,26,24,21,92,73,54,30.53,30.44,30.35,10,10,10,7,2,10,0.00,4,,349
2012-11-16,40,32,23,29,26,22,92,78,64,30.51,30.41,30.35,10,10,8,9,3,12,0.00,4,,2
2012-11-17,45,34,23,30,26,21,92,73,53,30.70,30.64,30.51,10,10,7,7,1,9,0.00,0,,28
2012-11-18,48,35,21,29,25,20,100,69,38,30.74,30.68,30.62,10,9,2,7,1,10,0.00,1,Fog,352
2012-11-19,49,35,21,29,23,20,96,66,36,30.61,30.47,30.30,10,10,9,6,0,10,0.00,1,Fog,180
2012-11-20,45,34,23,29,27,22,92,73,53,30.28,30.21,30.17,10,10,10,7,1,9,0.00,7,,351
2012-11-21,52,40,28,33,27,22,92,64,35,30.29,30.24,30.19,10,10,10,5,0,10,0.00,4,,345
2012-11-22,53,38,23,32,26,20,88,65,41,30.30,30.23,30.10,10,10,8,8,2,10,0.00,1,,167
2012-11-23,56,45,34,42,33,30,89,64,38,30.08,29.86,29.65,10,10,10,21,9,29,0.02,5,Rain,179
2012-11-24,45,37,29,32,22,18,72,60,48,29.78,29.71,29.66,10,10,10,31,15,40,T,5,Snow,292
2012-11-25,35,31,27,26,22,17,70,64,58,29.89,29.85,29.79,10,10,6,17,7,26,T,6,Snow,274
2012-11-26,44,35,25,27,25,23,85,67,49,30.25,30.08,29.88,10,10,10,20,7,28,T,6,Snow,244
2012-11-27,36,30,24,32,28,23,100,85,70,30.32,30.27,30.24,10,7,0,9,2,12,0.01,7,Fog-Rain-Snow,224
2012-11-28,38,32,25,29,24,20,100,74,48,30.25,30.22,30.16,10,10,7,12,3,16,T,7,Fog-Snow,243
2012-11-29,46,38,30,28,24,17,85,59,33,30.28,30.23,30.17,10,10,2,21,7,26,T,6,Snow,237
2012-11-30,38,30,22,28,15,8,85,68,50,30.56,30.45,30.25,10,9,5,14,8,18,0.01,8,Snow,11